Terminal Aerodrome Forecast
Issued by NWS Shreveport, LA

Home | Current Version | Previous Version | Text Only | Print | Product List | Glossary On
Versions: 1 2 3 4 5 6 7 8 9 10 11 12 13 14 15 16 17
176
FTUS44 KSHV 291916 AAA
TAFSHV
TAF AMD
KSHV 291916Z 2919/3018 16014G22KT P6SM VCSH BKN040
     FM292300 17016G28KT P6SM VCTS OVC040CB
      TEMPO 3005/3009 VRB25G50KT 1SM +TSRA BR OVC020CB
     FM300900 24010KT P6SM VCSH OVC070
     FM301300 27012G20KT P6SM SCT100=

USA.gov is the U.S. government's official web portal to all federal, state and local government web resources and services.